Aviation Digital Data Service (ADDS)

Output produced by METARs form (1327 UTC 10 July 2020)
found at http://www.aviationweather.gov/metar/data/
 
Forecast for: RJFM (MIYAZAKI AIRPORT, JP)
Text: TAF RJFM 101107Z 1012/1118 23006KT 9000 -SHRA FEW010 SCT020 BKN025
Forecast period: 1200 UTC 10 July 2020 to 1800 UTC 11 July 2020
Forecast type: FROM: standard forecast or significant change
Winds: from the SW (230 degrees) at 7 MPH (6 knots; 3.1 m/s)
Visibility: 6 miles (9 km)
Ceiling: 2500 feet AGL
Clouds: few clouds at 1000 feet AGL
scattered clouds at 2000 feet AGL
broken clouds at 2500 feet AGL
Weather: -SHRA  (light rain showers)
Text: TEMPO 1021/1103 4000 -SHRA BR
Forecast period: 2100 UTC 10 July 2020 to 0300 UTC 11 July 2020
Forecast type: TEMPORARY: The following changes expected for less than half the time period
Visibility: 2.49 miles (4.01 km)
Ceiling: unknown
Clouds: missing
Weather: -SHRA BR  (light rain showers, mist)
Text: TEMPO 1106/1112 4000 -SHRA BR
Forecast period: 0600 to 1200 UTC 11 July 2020
Forecast type: TEMPORARY: The following changes expected for less than half the time period
Visibility: 2.49 miles (4.01 km)
Ceiling: unknown
Clouds: missing
Weather: -SHRA BR  (light rain showers, mist)